sensor_id;sensor_type;location;lat;lon;timestamp;P1;durP1;ratioP1;P2;durP2;ratioP2
18228;SDS011;9239;50.932;3.142;2023-05-07T00:01:35;8.40;;;7.03;;
18228;SDS011;9239;50.932;3.142;2023-05-07T00:04:03;10.35;;;7.35;;
18228;SDS011;9239;50.932;3.142;2023-05-07T00:06:32;8.52;;;7.00;;
18228;SDS011;9239;50.932;3.142;2023-05-07T00:08:59;10.93;;;8.18;;
18228;SDS011;9239;50.932;3.142;2023-05-07T00:11:26;9.25;;;6.70;;
18228;SDS011;9239;50.932;3.142;2023-05-07T00:13:54;6.93;;;6.20;;
18228;SDS011;9239;50.932;3.142;2023-05-07T00:16:21;11.13;;;6.47;;
18228;SDS011;9239;50.932;3.142;2023-05-07T00:18:47;8.68;;;7.32;;
18228;SDS011;9239;50.932;3.142;2023-05-07T00:21:16;10.13;;;7.53;;
18228;SDS011;9239;50.932;3.142;2023-05-07T00:23:44;7.90;;;6.95;;
18228;SDS011;9239;50.932;3.142;2023-05-07T00:26:11;6.93;;;5.95;;
18228;SDS011;9239;50.932;3.142;2023-05-07T00:28:38;10.88;;;6.88;;
18228;SDS011;9239;50.932;3.142;2023-05-07T00:31:05;8.77;;;6.18;;
18228;SDS011;9239;50.932;3.142;2023-05-07T00:33:32;11.02;;;7.28;;
18228;SDS011;9239;50.932;3.142;2023-05-07T00:35:59;12.13;;;7.90;;
18228;SDS011;9239;50.932;3.142;2023-05-07T00:38:28;10.45;;;7.40;;
18228;SDS011;9239;50.932;3.142;2023-05-07T00:40:55;15.90;;;7.68;;
18228;SDS011;9239;50.932;3.142;2023-05-07T00:43:22;7.07;;;6.38;;
18228;SDS011;9239;50.932;3.142;2023-05-07T00:45:49;10.18;;;6.68;;
18228;SDS011;9239;50.932;3.142;2023-05-07T00:48:16;11.85;;;6.68;;
18228;SDS011;9239;50.932;3.142;2023-05-07T00:50:43;8.30;;;6.57;;
18228;SDS011;9239;50.932;3.142;2023-05-07T00:53:12;9.20;;;7.00;;
18228;SDS011;9239;50.932;3.142;2023-05-07T00:55:40;7.85;;;6.63;;
18228;SDS011;9239;50.932;3.142;2023-05-07T00:58:08;11.75;;;7.03;;
18228;SDS011;9239;50.932;3.142;2023-05-07T01:00:35;9.10;;;6.85;;
18228;SDS011;9239;50.932;3.142;2023-05-07T01:03:02;13.23;;;6.45;;
18228;SDS011;9239;50.932;3.142;2023-05-07T01:05:29;6.70;;;6.10;;
18228;SDS011;9239;50.932;3.142;2023-05-07T01:07:56;10.32;;;6.70;;
18228;SDS011;9239;50.932;3.142;2023-05-07T01:10:24;8.02;;;6.50;;
18228;SDS011;9239;50.932;3.142;2023-05-07T01:12:53;8.73;;;7.60;;
18228;SDS011;9239;50.932;3.142;2023-05-07T01:15:20;10.80;;;7.93;;
18228;SDS011;9239;50.932;3.142;2023-05-07T01:17:47;8.55;;;7.07;;
18228;SDS011;9239;50.932;3.142;2023-05-07T01:20:15;7.18;;;6.47;;
18228;SDS011;9239;50.932;3.142;2023-05-07T01:22:43;8.40;;;7.18;;
18228;SDS011;9239;50.932;3.142;2023-05-07T01:25:10;12.05;;;7.10;;
18228;SDS011;9239;50.932;3.142;2023-05-07T01:27:38;10.60;;;7.00;;
18228;SDS011;9239;50.932;3.142;2023-05-07T01:30:06;8.20;;;6.70;;
18228;SDS011;9239;50.932;3.142;2023-05-07T01:32:36;7.90;;;7.00;;
18228;SDS011;9239;50.932;3.142;2023-05-07T01:35:09;10.88;;;6.70;;
18228;SDS011;9239;50.932;3.142;2023-05-07T01:37:38;9.35;;;7.40;;
18228;SDS011;9239;50.932;3.142;2023-05-07T01:40:07;10.88;;;7.70;;
18228;SDS011;9239;50.932;3.142;2023-05-07T01:42:35;10.85;;;7.68;;
18228;SDS011;9239;50.932;3.142;2023-05-07T01:45:03;11.48;;;7.25;;
18228;SDS011;9239;50.932;3.142;2023-05-07T01:47:31;10.93;;;6.80;;
18228;SDS011;9239;50.932;3.142;2023-05-07T01:49:58;8.27;;;7.47;;
18228;SDS011;9239;50.932;3.142;2023-05-07T01:52:26;11.27;;;8.13;;
18228;SDS011;9239;50.932;3.142;2023-05-07T01:54:55;10.95;;;7.10;;
18228;SDS011;9239;50.932;3.142;2023-05-07T01:57:23;10.50;;;7.53;;
18228;SDS011;9239;50.932;3.142;2023-05-07T01:59:50;9.60;;;7.68;;
18228;SDS011;9239;50.932;3.142;2023-05-07T02:02:17;14.43;;;7.93;;
18228;SDS011;9239;50.932;3.142;2023-05-07T02:04:44;12.32;;;8.18;;
18228;SDS011;9239;50.932;3.142;2023-05-07T02:07:11;8.27;;;7.47;;
18228;SDS011;9239;50.932;3.142;2023-05-07T02:09:38;7.70;;;6.93;;
18228;SDS011;9239;50.932;3.142;2023-05-07T02:12:05;10.63;;;7.80;;
18228;SDS011;9239;50.932;3.142;2023-05-07T02:14:33;9.35;;;6.72;;
18228;SDS011;9239;50.932;3.142;2023-05-07T02:17:00;11.90;;;7.22;;
18228;SDS011;9239;50.932;3.142;2023-05-07T02:19:28;10.18;;;7.28;;
18228;SDS011;9239;50.932;3.142;2023-05-07T02:21:55;10.32;;;7.32;;
18228;SDS011;9239;50.932;3.142;2023-05-07T02:24:22;11.63;;;8.90;;
18228;SDS011;9239;50.932;3.142;2023-05-07T02:26:49;8.50;;;7.45;;
18228;SDS011;9239;50.932;3.142;2023-05-07T02:29:16;8.25;;;7.45;;
18228;SDS011;9239;50.932;3.142;2023-05-07T02:31:44;8.88;;;7.30;;
18228;SDS011;9239;50.932;3.142;2023-05-07T02:34:12;9.82;;;7.47;;
18228;SDS011;9239;50.932;3.142;2023-05-07T02:36:39;9.52;;;7.60;;
18228;SDS011;9239;50.932;3.142;2023-05-07T02:39:06;8.88;;;7.35;;
18228;SDS011;9239;50.932;3.142;2023-05-07T02:41:33;8.40;;;7.30;;
18228;SDS011;9239;50.932;3.142;2023-05-07T02:44:00;14.30;;;8.35;;
18228;SDS011;9239;50.932;3.142;2023-05-07T02:46:27;8.95;;;7.30;;
18228;SDS011;9239;50.932;3.142;2023-05-07T02:48:55;10.50;;;8.00;;
18228;SDS011;9239;50.932;3.142;2023-05-07T02:51:22;10.48;;;7.63;;
18228;SDS011;9239;50.932;3.142;2023-05-07T02:53:51;10.52;;;7.72;;
18228;SDS011;9239;50.932;3.142;2023-05-07T02:56:17;12.45;;;8.52;;
18228;SDS011;9239;50.932;3.142;2023-05-07T02:58:44;11.50;;;7.47;;
18228;SDS011;9239;50.932;3.142;2023-05-07T03:01:11;13.60;;;8.85;;
18228;SDS011;9239;50.932;3.142;2023-05-07T03:03:39;12.00;;;8.02;;
18228;SDS011;9239;50.932;3.142;2023-05-07T03:06:07;11.82;;;8.23;;
18228;SDS011;9239;50.932;3.142;2023-05-07T03:08:34;10.18;;;7.80;;
18228;SDS011;9239;50.932;3.142;2023-05-07T03:11:01;9.40;;;7.22;;
18228;SDS011;9239;50.932;3.142;2023-05-07T03:13:28;11.00;;;8.23;;
18228;SDS011;9239;50.932;3.142;2023-05-07T03:15:55;9.57;;;8.60;;
18228;SDS011;9239;50.932;3.142;2023-05-07T03:18:22;13.55;;;8.57;;
18228;SDS011;9239;50.932;3.142;2023-05-07T03:20:49;9.30;;;8.05;;
18228;SDS011;9239;50.932;3.142;2023-05-07T03:23:17;8.63;;;7.10;;
18228;SDS011;9239;50.932;3.142;2023-05-07T03:25:44;8.05;;;7.22;;
18228;SDS011;9239;50.932;3.142;2023-05-07T03:28:11;12.32;;;8.63;;
18228;SDS011;9239;50.932;3.142;2023-05-07T03:30:38;9.65;;;7.72;;
18228;SDS011;9239;50.932;3.142;2023-05-07T03:33:05;9.05;;;8.20;;
18228;SDS011;9239;50.932;3.142;2023-05-07T03:35:32;9.60;;;8.60;;
18228;SDS011;9239;50.932;3.142;2023-05-07T03:37:59;9.75;;;8.50;;
18228;SDS011;9239;50.932;3.142;2023-05-07T03:40:27;10.70;;;8.52;;
18228;SDS011;9239;50.932;3.142;2023-05-07T03:42:54;10.40;;;8.05;;
18228;SDS011;9239;50.932;3.142;2023-05-07T03:45:21;9.38;;;8.48;;
18228;SDS011;9239;50.932;3.142;2023-05-07T03:47:48;10.88;;;8.88;;
18228;SDS011;9239;50.932;3.142;2023-05-07T03:50:15;12.18;;;8.38;;
18228;SDS011;9239;50.932;3.142;2023-05-07T03:52:42;9.30;;;8.25;;
18228;SDS011;9239;50.932;3.142;2023-05-07T03:55:09;10.80;;;8.90;;
18228;SDS011;9239;50.932;3.142;2023-05-07T03:57:37;9.20;;;8.30;;
18228;SDS011;9239;50.932;3.142;2023-05-07T04:00:05;10.30;;;8.10;;
18228;SDS011;9239;50.932;3.142;2023-05-07T04:02:33;12.77;;;9.23;;
18228;SDS011;9239;50.932;3.142;2023-05-07T04:05:00;9.10;;;8.15;;
18228;SDS011;9239;50.932;3.142;2023-05-07T04:07:27;9.80;;;8.57;;
18228;SDS011;9239;50.932;3.142;2023-05-07T04:09:53;12.35;;;9.05;;
18228;SDS011;9239;50.932;3.142;2023-05-07T04:12:20;10.70;;;8.27;;
18228;SDS011;9239;50.932;3.142;2023-05-07T04:14:49;10.48;;;8.48;;
18228;SDS011;9239;50.932;3.142;2023-05-07T04:17:16;9.95;;;8.93;;
18228;SDS011;9239;50.932;3.142;2023-05-07T04:19:42;11.80;;;8.60;;
18228;SDS011;9239;50.932;3.142;2023-05-07T04:22:10;14.27;;;9.18;;
18228;SDS011;9239;50.932;3.142;2023-05-07T04:24:37;10.73;;;9.02;;
18228;SDS011;9239;50.932;3.142;2023-05-07T04:27:04;11.02;;;8.90;;
18228;SDS011;9239;50.932;3.142;2023-05-07T04:29:31;11.32;;;10.13;;
18228;SDS011;9239;50.932;3.142;2023-05-07T04:32:00;9.35;;;8.55;;
18228;SDS011;9239;50.932;3.142;2023-05-07T04:34:26;11.15;;;8.95;;
18228;SDS011;9239;50.932;3.142;2023-05-07T04:36:53;12.20;;;10.88;;
18228;SDS011;9239;50.932;3.142;2023-05-07T04:39:24;11.88;;;10.68;;
18228;SDS011;9239;50.932;3.142;2023-05-07T04:41:51;11.60;;;9.95;;
18228;SDS011;9239;50.932;3.142;2023-05-07T04:44:18;12.68;;;11.45;;
18228;SDS011;9239;50.932;3.142;2023-05-07T04:46:45;14.90;;;10.90;;
18228;SDS011;9239;50.932;3.142;2023-05-07T04:49:14;13.32;;;11.82;;
18228;SDS011;9239;50.932;3.142;2023-05-07T04:51:41;17.45;;;12.73;;
18228;SDS011;9239;50.932;3.142;2023-05-07T04:54:08;14.48;;;12.25;;
18228;SDS011;9239;50.932;3.142;2023-05-07T04:56:35;14.43;;;10.73;;
18228;SDS011;9239;50.932;3.142;2023-05-07T04:59:02;12.10;;;10.75;;
18228;SDS011;9239;50.932;3.142;2023-05-07T05:01:29;13.23;;;10.60;;
18228;SDS011;9239;50.932;3.142;2023-05-07T05:03:56;12.38;;;11.05;;
18228;SDS011;9239;50.932;3.142;2023-05-07T05:06:26;13.77;;;11.43;;
18228;SDS011;9239;50.932;3.142;2023-05-07T05:08:53;12.35;;;11.07;;
18228;SDS011;9239;50.932;3.142;2023-05-07T05:11:20;12.23;;;11.00;;
18228;SDS011;9239;50.932;3.142;2023-05-07T05:13:47;16.40;;;12.85;;
18228;SDS011;9239;50.932;3.142;2023-05-07T05:16:14;11.48;;;10.48;;
18228;SDS011;9239;50.932;3.142;2023-05-07T05:18:41;13.20;;;11.82;;
18228;SDS011;9239;50.932;3.142;2023-05-07T05:21:08;13.98;;;11.68;;
18228;SDS011;9239;50.932;3.142;2023-05-07T05:23:36;12.38;;;10.60;;
18228;SDS011;9239;50.932;3.142;2023-05-07T05:26:04;16.15;;;12.30;;
18228;SDS011;9239;50.932;3.142;2023-05-07T05:28:31;12.60;;;11.40;;
18228;SDS011;9239;50.932;3.142;2023-05-07T05:30:57;13.20;;;11.77;;
18228;SDS011;9239;50.932;3.142;2023-05-07T05:33:24;15.70;;;13.85;;
18228;SDS011;9239;50.932;3.142;2023-05-07T05:35:52;16.48;;;12.60;;
18228;SDS011;9239;50.932;3.142;2023-05-07T05:38:20;13.63;;;12.02;;
18228;SDS011;9239;50.932;3.142;2023-05-07T05:40:48;14.57;;;13.27;;
18228;SDS011;9239;50.932;3.142;2023-05-07T05:43:15;13.82;;;12.48;;
18228;SDS011;9239;50.932;3.142;2023-05-07T05:45:42;13.77;;;12.25;;
18228;SDS011;9239;50.932;3.142;2023-05-07T05:48:09;15.60;;;12.07;;
18228;SDS011;9239;50.932;3.142;2023-05-07T05:50:36;13.43;;;12.15;;
18228;SDS011;9239;50.932;3.142;2023-05-07T05:53:03;14.70;;;12.60;;
18228;SDS011;9239;50.932;3.142;2023-05-07T05:55:30;14.73;;;12.15;;
18228;SDS011;9239;50.932;3.142;2023-05-07T05:57:59;13.52;;;11.18;;
18228;SDS011;9239;50.932;3.142;2023-05-07T06:00:26;13.75;;;11.20;;
18228;SDS011;9239;50.932;3.142;2023-05-07T06:02:53;16.45;;;12.00;;
18228;SDS011;9239;50.932;3.142;2023-05-07T06:05:20;14.23;;;12.63;;
18228;SDS011;9239;50.932;3.142;2023-05-07T06:07:47;13.55;;;11.68;;
18228;SDS011;9239;50.932;3.142;2023-05-07T06:10:14;14.05;;;11.82;;
18228;SDS011;9239;50.932;3.142;2023-05-07T06:12:41;15.57;;;12.13;;
18228;SDS011;9239;50.932;3.142;2023-05-07T06:15:10;14.07;;;11.75;;
18228;SDS011;9239;50.932;3.142;2023-05-07T06:17:37;14.07;;;12.52;;
18228;SDS011;9239;50.932;3.142;2023-05-07T06:20:04;18.83;;;12.63;;
18228;SDS011;9239;50.932;3.142;2023-05-07T06:22:32;15.25;;;13.75;;
18228;SDS011;9239;50.932;3.142;2023-05-07T06:24:59;13.88;;;12.32;;
18228;SDS011;9239;50.932;3.142;2023-05-07T06:27:26;14.73;;;12.50;;
18228;SDS011;9239;50.932;3.142;2023-05-07T06:29:54;13.63;;;11.95;;
18228;SDS011;9239;50.932;3.142;2023-05-07T06:32:22;13.35;;;12.02;;
18228;SDS011;9239;50.932;3.142;2023-05-07T06:34:49;14.68;;;11.27;;
18228;SDS011;9239;50.932;3.142;2023-05-07T06:37:16;15.48;;;12.63;;
18228;SDS011;9239;50.932;3.142;2023-05-07T06:39:43;17.27;;;12.15;;
18228;SDS011;9239;50.932;3.142;2023-05-07T06:42:10;16.65;;;13.63;;
18228;SDS011;9239;50.932;3.142;2023-05-07T06:44:37;18.63;;;12.98;;
18228;SDS011;9239;50.932;3.142;2023-05-07T06:47:04;14.18;;;11.50;;
18228;SDS011;9239;50.932;3.142;2023-05-07T06:49:32;13.65;;;11.30;;
18228;SDS011;9239;50.932;3.142;2023-05-07T06:51:59;12.50;;;11.18;;
18228;SDS011;9239;50.932;3.142;2023-05-07T06:54:26;12.48;;;10.40;;
18228;SDS011;9239;50.932;3.142;2023-05-07T06:56:53;15.10;;;11.25;;
18228;SDS011;9239;50.932;3.142;2023-05-07T06:59:20;11.43;;;10.38;;
18228;SDS011;9239;50.932;3.142;2023-05-07T07:01:47;15.27;;;10.20;;
18228;SDS011;9239;50.932;3.142;2023-05-07T07:04:14;13.80;;;12.45;;
18228;SDS011;9239;50.932;3.142;2023-05-07T07:06:42;15.07;;;11.98;;
18228;SDS011;9239;50.932;3.142;2023-05-07T07:09:09;15.65;;;12.35;;
18228;SDS011;9239;50.932;3.142;2023-05-07T07:11:36;14.48;;;12.90;;
18228;SDS011;9239;50.932;3.142;2023-05-07T07:14:03;15.80;;;13.85;;
18228;SDS011;9239;50.932;3.142;2023-05-07T07:16:31;14.15;;;12.75;;
18228;SDS011;9239;50.932;3.142;2023-05-07T07:18:58;14.90;;;13.07;;
18228;SDS011;9239;50.932;3.142;2023-05-07T07:21:25;20.80;;;14.15;;
18228;SDS011;9239;50.932;3.142;2023-05-07T07:23:53;15.02;;;13.32;;
18228;SDS011;9239;50.932;3.142;2023-05-07T07:26:20;15.27;;;13.48;;
18228;SDS011;9239;50.932;3.142;2023-05-07T07:28:47;14.57;;;12.68;;
18228;SDS011;9239;50.932;3.142;2023-05-07T07:31:14;17.73;;;12.45;;
18228;SDS011;9239;50.932;3.142;2023-05-07T07:33:41;13.68;;;12.23;;
18228;SDS011;9239;50.932;3.142;2023-05-07T07:36:09;12.45;;;11.25;;
18228;SDS011;9239;50.932;3.142;2023-05-07T07:38:36;14.65;;;12.13;;
18228;SDS011;9239;50.932;3.142;2023-05-07T07:41:05;15.70;;;12.57;;
18228;SDS011;9239;50.932;3.142;2023-05-07T07:43:33;14.00;;;12.50;;
18228;SDS011;9239;50.932;3.142;2023-05-07T07:46:00;14.38;;;11.35;;
18228;SDS011;9239;50.932;3.142;2023-05-07T07:48:27;12.43;;;10.43;;
18228;SDS011;9239;50.932;3.142;2023-05-07T07:50:54;14.95;;;12.40;;
18228;SDS011;9239;50.932;3.142;2023-05-07T07:53:21;13.13;;;11.80;;
18228;SDS011;9239;50.932;3.142;2023-05-07T07:55:48;14.13;;;11.52;;
18228;SDS011;9239;50.932;3.142;2023-05-07T07:58:16;17.67;;;12.48;;
18228;SDS011;9239;50.932;3.142;2023-05-07T08:00:43;12.90;;;11.18;;
18228;SDS011;9239;50.932;3.142;2023-05-07T08:03:12;14.40;;;12.98;;
18228;SDS011;9239;50.932;3.142;2023-05-07T08:05:41;12.98;;;10.98;;
18228;SDS011;9239;50.932;3.142;2023-05-07T08:08:08;12.95;;;11.68;;
18228;SDS011;9239;50.932;3.142;2023-05-07T08:10:35;12.82;;;11.00;;
18228;SDS011;9239;50.932;3.142;2023-05-07T08:13:04;13.13;;;11.95;;
18228;SDS011;9239;50.932;3.142;2023-05-07T08:15:32;12.52;;;10.57;;
18228;SDS011;9239;50.932;3.142;2023-05-07T08:17:59;13.32;;;10.85;;
18228;SDS011;9239;50.932;3.142;2023-05-07T08:20:29;13.82;;;9.88;;
18228;SDS011;9239;50.932;3.142;2023-05-07T08:22:56;15.55;;;13.95;;
18228;SDS011;9239;50.932;3.142;2023-05-07T08:25:23;13.13;;;11.88;;
18228;SDS011;9239;50.932;3.142;2023-05-07T08:27:50;15.85;;;12.15;;
18228;SDS011;9239;50.932;3.142;2023-05-07T08:30:17;13.55;;;11.60;;
18228;SDS011;9239;50.932;3.142;2023-05-07T08:32:45;16.80;;;11.73;;
18228;SDS011;9239;50.932;3.142;2023-05-07T08:35:12;11.82;;;9.98;;
18228;SDS011;9239;50.932;3.142;2023-05-07T08:37:39;12.55;;;8.95;;
18228;SDS011;9239;50.932;3.142;2023-05-07T08:40:07;16.35;;;10.32;;
18228;SDS011;9239;50.932;3.142;2023-05-07T08:42:35;12.77;;;9.27;;
18228;SDS011;9239;50.932;3.142;2023-05-07T08:45:03;11.50;;;8.93;;
18228;SDS011;9239;50.932;3.142;2023-05-07T08:47:39;10.45;;;8.90;;
18228;SDS011;9239;50.932;3.142;2023-05-07T08:50:11;12.70;;;8.23;;
18228;SDS011;9239;50.932;3.142;2023-05-07T08:52:38;10.80;;;8.50;;
18228;SDS011;9239;50.932;3.142;2023-05-07T08:55:06;11.70;;;8.65;;
18228;SDS011;9239;50.932;3.142;2023-05-07T08:57:35;12.70;;;9.85;;
18228;SDS011;9239;50.932;3.142;2023-05-07T09:00:02;11.85;;;10.35;;
18228;SDS011;9239;50.932;3.142;2023-05-07T09:02:32;16.23;;;11.90;;
18228;SDS011;9239;50.932;3.142;2023-05-07T09:04:59;12.55;;;11.25;;
18228;SDS011;9239;50.932;3.142;2023-05-07T09:07:28;15.88;;;13.15;;
18228;SDS011;9239;50.932;3.142;2023-05-07T09:09:56;16.90;;;15.32;;
18228;SDS011;9239;50.932;3.142;2023-05-07T09:12:23;14.95;;;13.43;;
18228;SDS011;9239;50.932;3.142;2023-05-07T09:14:50;16.20;;;14.65;;
18228;SDS011;9239;50.932;3.142;2023-05-07T09:17:17;14.30;;;13.00;;
18228;SDS011;9239;50.932;3.142;2023-05-07T09:19:47;13.13;;;11.90;;
18228;SDS011;9239;50.932;3.142;2023-05-07T09:22:14;10.88;;;10.05;;
18228;SDS011;9239;50.932;3.142;2023-05-07T09:24:44;11.95;;;10.70;;
18228;SDS011;9239;50.932;3.142;2023-05-07T09:27:14;10.93;;;9.82;;
18228;SDS011;9239;50.932;3.142;2023-05-07T09:29:41;10.63;;;9.73;;
18228;SDS011;9239;50.932;3.142;2023-05-07T09:32:09;10.20;;;9.20;;
18228;SDS011;9239;50.932;3.142;2023-05-07T09:34:36;9.38;;;8.45;;
18228;SDS011;9239;50.932;3.142;2023-05-07T09:37:03;10.30;;;9.32;;
18228;SDS011;9239;50.932;3.142;2023-05-07T09:39:40;9.63;;;8.70;;
18228;SDS011;9239;50.932;3.142;2023-05-07T09:42:09;10.85;;;9.15;;
18228;SDS011;9239;50.932;3.142;2023-05-07T09:44:37;10.45;;;8.45;;
18228;SDS011;9239;50.932;3.142;2023-05-07T09:47:05;9.05;;;8.20;;
18228;SDS011;9239;50.932;3.142;2023-05-07T09:49:34;11.80;;;10.02;;
18228;SDS011;9239;50.932;3.142;2023-05-07T09:52:02;9.90;;;8.90;;
18228;SDS011;9239;50.932;3.142;2023-05-07T09:54:31;10.13;;;9.23;;
18228;SDS011;9239;50.932;3.142;2023-05-07T09:56:59;10.38;;;8.40;;
18228;SDS011;9239;50.932;3.142;2023-05-07T09:59:30;11.85;;;10.63;;
18228;SDS011;9239;50.932;3.142;2023-05-07T10:02:00;12.80;;;11.55;;
18228;SDS011;9239;50.932;3.142;2023-05-07T10:04:28;13.40;;;12.07;;
18228;SDS011;9239;50.932;3.142;2023-05-07T10:06:57;11.48;;;10.40;;
18228;SDS011;9239;50.932;3.142;2023-05-07T10:09:25;12.00;;;10.80;;
18228;SDS011;9239;50.932;3.142;2023-05-07T10:11:52;16.52;;;11.65;;
18228;SDS011;9239;50.932;3.142;2023-05-07T10:14:21;13.50;;;12.20;;
18228;SDS011;9239;50.932;3.142;2023-05-07T10:16:49;13.40;;;12.15;;
18228;SDS011;9239;50.932;3.142;2023-05-07T10:19:17;14.40;;;12.88;;
18228;SDS011;9239;50.932;3.142;2023-05-07T10:21:48;13.93;;;12.45;;
18228;SDS011;9239;50.932;3.142;2023-05-07T10:24:21;12.55;;;9.35;;
18228;SDS011;9239;50.932;3.142;2023-05-07T10:26:52;12.48;;;11.20;;
18228;SDS011;9239;50.932;3.142;2023-05-07T10:29:24;13.95;;;12.48;;
18228;SDS011;9239;50.932;3.142;2023-05-07T10:32:07;14.70;;;13.25;;
18228;SDS011;9239;50.932;3.142;2023-05-07T10:34:45;14.43;;;12.60;;
18228;SDS011;9239;50.932;3.142;2023-05-07T10:37:15;13.73;;;12.05;;
18228;SDS011;9239;50.932;3.142;2023-05-07T10:39:42;13.50;;;12.07;;
18228;SDS011;9239;50.932;3.142;2023-05-07T10:42:09;12.23;;;11.18;;
18228;SDS011;9239;50.932;3.142;2023-05-07T10:44:38;11.80;;;10.18;;
18228;SDS011;9239;50.932;3.142;2023-05-07T10:47:07;10.80;;;9.68;;
18228;SDS011;9239;50.932;3.142;2023-05-07T10:49:36;11.40;;;9.50;;
18228;SDS011;9239;50.932;3.142;2023-05-07T10:52:16;10.80;;;9.60;;
18228;SDS011;9239;50.932;3.142;2023-05-07T10:54:44;14.27;;;9.82;;
18228;SDS011;9239;50.932;3.142;2023-05-07T11:00:02;13.23;;;12.02;;
18228;SDS011;9239;50.932;3.142;2023-05-07T11:05:34;11.60;;;10.50;;
18228;SDS011;9239;50.932;3.142;2023-05-07T11:08:02;12.70;;;11.40;;
18228;SDS011;9239;50.932;3.142;2023-05-07T11:10:49;11.68;;;10.45;;
18228;SDS011;9239;50.932;3.142;2023-05-07T11:13:18;12.20;;;10.57;;
18228;SDS011;9239;50.932;3.142;2023-05-07T11:16:05;13.88;;;11.05;;
18228;SDS011;9239;50.932;3.142;2023-05-07T11:18:48;15.32;;;13.68;;
18228;SDS011;9239;50.932;3.142;2023-05-07T11:21:31;13.60;;;12.27;;
18228;SDS011;9239;50.932;3.142;2023-05-07T11:24:00;11.43;;;10.40;;
18228;SDS011;9239;50.932;3.142;2023-05-07T11:26:31;7.63;;;6.80;;
18228;SDS011;9239;50.932;3.142;2023-05-07T11:29:10;6.25;;;5.68;;
18228;SDS011;9239;50.932;3.142;2023-05-07T11:31:38;8.05;;;6.15;;
18228;SDS011;9239;50.932;3.142;2023-05-07T11:34:06;6.95;;;6.30;;
18228;SDS011;9239;50.932;3.142;2023-05-07T11:36:34;10.15;;;5.43;;
18228;SDS011;9239;50.932;3.142;2023-05-07T11:39:01;6.72;;;5.45;;
18228;SDS011;9239;50.932;3.142;2023-05-07T11:41:35;9.40;;;6.57;;
18228;SDS011;9239;50.932;3.142;2023-05-07T11:44:02;7.80;;;7.07;;
18228;SDS011;9239;50.932;3.142;2023-05-07T11:46:30;7.03;;;6.35;;
18228;SDS011;9239;50.932;3.142;2023-05-07T11:48:57;9.95;;;8.18;;
18228;SDS011;9239;50.932;3.142;2023-05-07T11:51:26;8.43;;;7.20;;
18228;SDS011;9239;50.932;3.142;2023-05-07T11:53:53;7.82;;;7.03;;
18228;SDS011;9239;50.932;3.142;2023-05-07T11:56:20;7.75;;;6.75;;
18228;SDS011;9239;50.932;3.142;2023-05-07T11:58:47;7.85;;;7.03;;
18228;SDS011;9239;50.932;3.142;2023-05-07T12:01:16;8.63;;;7.68;;
18228;SDS011;9239;50.932;3.142;2023-05-07T12:03:44;8.68;;;7.90;;
18228;SDS011;9239;50.932;3.142;2023-05-07T12:06:12;8.43;;;6.85;;
18228;SDS011;9239;50.932;3.142;2023-05-07T12:08:42;7.50;;;6.85;;
18228;SDS011;9239;50.932;3.142;2023-05-07T12:11:13;9.32;;;7.88;;
18228;SDS011;9239;50.932;3.142;2023-05-07T12:13:43;7.20;;;6.50;;
18228;SDS011;9239;50.932;3.142;2023-05-07T12:16:10;8.43;;;7.57;;
18228;SDS011;9239;50.932;3.142;2023-05-07T12:18:37;8.18;;;7.47;;
18228;SDS011;9239;50.932;3.142;2023-05-07T12:21:05;8.30;;;7.07;;
18228;SDS011;9239;50.932;3.142;2023-05-07T12:23:33;7.80;;;6.75;;
18228;SDS011;9239;50.932;3.142;2023-05-07T12:26:03;10.25;;;7.05;;
18228;SDS011;9239;50.932;3.142;2023-05-07T12:28:31;8.40;;;7.38;;
18228;SDS011;9239;50.932;3.142;2023-05-07T12:31:03;8.38;;;7.57;;
18228;SDS011;9239;50.932;3.142;2023-05-07T12:33:30;9.35;;;7.05;;
18228;SDS011;9239;50.932;3.142;2023-05-07T12:35:58;7.93;;;7.22;;
18228;SDS011;9239;50.932;3.142;2023-05-07T12:38:32;8.10;;;7.00;;
18228;SDS011;9239;50.932;3.142;2023-05-07T12:41:03;8.77;;;7.00;;
18228;SDS011;9239;50.932;3.142;2023-05-07T12:43:32;8.40;;;7.53;;
18228;SDS011;9239;50.932;3.142;2023-05-07T12:46:00;7.40;;;6.45;;
18228;SDS011;9239;50.932;3.142;2023-05-07T12:48:27;7.35;;;6.75;;
18228;SDS011;9239;50.932;3.142;2023-05-07T12:50:55;8.77;;;6.63;;
18228;SDS011;9239;50.932;3.142;2023-05-07T12:53:24;6.93;;;6.22;;
18228;SDS011;9239;50.932;3.142;2023-05-07T12:55:55;7.93;;;6.32;;
18228;SDS011;9239;50.932;3.142;2023-05-07T12:58:25;7.10;;;6.40;;
18228;SDS011;9239;50.932;3.142;2023-05-07T13:00:54;7.03;;;6.15;;
18228;SDS011;9239;50.932;3.142;2023-05-07T13:03:24;6.28;;;5.68;;
18228;SDS011;9239;50.932;3.142;2023-05-07T13:05:55;6.85;;;6.25;;
18228;SDS011;9239;50.932;3.142;2023-05-07T13:08:27;6.95;;;6.00;;
18228;SDS011;9239;50.932;3.142;2023-05-07T13:10:57;7.55;;;6.85;;
18228;SDS011;9239;50.932;3.142;2023-05-07T13:13:29;8.20;;;6.85;;
18228;SDS011;9239;50.932;3.142;2023-05-07T13:15:56;8.35;;;6.47;;
18228;SDS011;9239;50.932;3.142;2023-05-07T13:18:24;9.52;;;6.68;;
18228;SDS011;9239;50.932;3.142;2023-05-07T13:20:52;7.47;;;6.75;;
18228;SDS011;9239;50.932;3.142;2023-05-07T13:23:19;7.45;;;6.65;;
18228;SDS011;9239;50.932;3.142;2023-05-07T13:25:46;8.85;;;5.75;;
18228;SDS011;9239;50.932;3.142;2023-05-07T13:28:14;7.22;;;6.10;;
18228;SDS011;9239;50.932;3.142;2023-05-07T13:30:42;6.13;;;5.60;;
18228;SDS011;9239;50.932;3.142;2023-05-07T13:33:09;7.22;;;5.32;;
18228;SDS011;9239;50.932;3.142;2023-05-07T13:35:37;9.13;;;6.03;;
18228;SDS011;9239;50.932;3.142;2023-05-07T13:38:05;7.75;;;5.60;;
18228;SDS011;9239;50.932;3.142;2023-05-07T13:40:33;8.75;;;7.53;;
18228;SDS011;9239;50.932;3.142;2023-05-07T13:43:01;8.63;;;7.57;;
18228;SDS011;9239;50.932;3.142;2023-05-07T13:45:28;9.48;;;8.55;;
18228;SDS011;9239;50.932;3.142;2023-05-07T13:47:58;9.18;;;7.90;;
18228;SDS011;9239;50.932;3.142;2023-05-07T13:50:26;9.93;;;6.95;;
18228;SDS011;9239;50.932;3.142;2023-05-07T13:52:55;8.20;;;7.40;;
18228;SDS011;9239;50.932;3.142;2023-05-07T13:55:23;7.70;;;6.93;;
18228;SDS011;9239;50.932;3.142;2023-05-07T13:57:57;7.97;;;7.28;;
18228;SDS011;9239;50.932;3.142;2023-05-07T14:00:25;7.72;;;6.93;;
18228;SDS011;9239;50.932;3.142;2023-05-07T14:02:53;9.05;;;7.60;;
18228;SDS011;9239;50.932;3.142;2023-05-07T14:05:21;7.55;;;6.85;;
18228;SDS011;9239;50.932;3.142;2023-05-07T14:07:50;8.70;;;7.70;;
18228;SDS011;9239;50.932;3.142;2023-05-07T14:10:17;7.43;;;6.72;;
18228;SDS011;9239;50.932;3.142;2023-05-07T14:12:45;7.80;;;6.97;;
18228;SDS011;9239;50.932;3.142;2023-05-07T14:15:12;9.32;;;8.13;;
18228;SDS011;9239;50.932;3.142;2023-05-07T14:17:39;9.73;;;7.18;;
18228;SDS011;9239;50.932;3.142;2023-05-07T14:20:06;8.98;;;7.35;;
18228;SDS011;9239;50.932;3.142;2023-05-07T14:22:36;9.25;;;7.30;;
18228;SDS011;9239;50.932;3.142;2023-05-07T14:25:04;10.10;;;7.07;;
18228;SDS011;9239;50.932;3.142;2023-05-07T14:27:32;10.05;;;6.82;;
18228;SDS011;9239;50.932;3.142;2023-05-07T14:30:00;7.53;;;6.82;;
18228;SDS011;9239;50.932;3.142;2023-05-07T14:32:27;7.88;;;7.07;;
18228;SDS011;9239;50.932;3.142;2023-05-07T14:34:54;7.13;;;6.28;;
18228;SDS011;9239;50.932;3.142;2023-05-07T14:37:21;6.90;;;5.82;;
18228;SDS011;9239;50.932;3.142;2023-05-07T14:39:49;8.50;;;6.32;;
18228;SDS011;9239;50.932;3.142;2023-05-07T14:42:16;6.43;;;5.88;;
18228;SDS011;9239;50.932;3.142;2023-05-07T14:44:43;9.55;;;6.05;;
18228;SDS011;9239;50.932;3.142;2023-05-07T14:47:11;5.53;;;5.00;;
18228;SDS011;9239;50.932;3.142;2023-05-07T14:49:38;5.53;;;5.03;;
18228;SDS011;9239;50.932;3.142;2023-05-07T14:52:05;5.10;;;4.70;;
18228;SDS011;9239;50.932;3.142;2023-05-07T14:54:34;5.75;;;5.25;;
18228;SDS011;9239;50.932;3.142;2023-05-07T14:57:02;6.43;;;4.70;;
18228;SDS011;9239;50.932;3.142;2023-05-07T14:59:30;6.05;;;5.45;;